Portada
METAR-TAF:

METAR-TAF

Aeroports :

Kufra, Líbia

latitud: 24-13N, longitud: 023-18E, altitud: 417 m

METAR: manca

Hora: 20:36 (18:36 UTC)

Pronòstic

L'informe es va fer fa 1 hora i 36 minuts, a les 17:00 UTC
Pronòstic vàlid del 12 a les 18 UTC al 13 a les 18 UTC
Vent 10 kt del Nord/Nord-Oest
Visibilitat 10 km o més
sense núvols per sota de 1500 mi sense presència de cumulonimbus.
Evolucionant progressivament
l' 12 a les 21 UTC al 12 a les 23 UTC
Vent 2 kt amb direcció variable
Evolucionant progressivament
l' 13 a les 03 UTC al 13 a les 05 UTC
Vent 10 kt del Est/Nord-Est
Evolucionant progressivament
l' 13 a les 12 UTC al 13 a les 14 UTC
Vent 10 kt del Nord/Nord-Oest

TAF: HLKF 121700Z 1218/1318 33010KT CAVOK BECMG 1221/1223 VRB02KT BECMG 1303/1305 06010KT BECMG 1312/1314 33010KT

Observacions i pronòstics meteorològics de més de 4000 aeroports (METAR i TAF).

Les estacions disponibles són els punts grocs i vermells al mapa.

Posi el ratolí al punt desitjat per veure el nom de l'estació.

Feu clic per veure les observacions i els pronòstics meteorològics.

Per canviar el mapa: feu clic els botons verds amb una creu de color negre per apropar; al botó verd amb un guió per allunyar la imatge; o en les fletxes verdes per a mapes adjacents.


METAR-TAF: